createdAt,value
2023-02-23T00:00:47.285Z,100.00
2023-02-23T00:03:49.742Z,100.00
2023-02-23T00:06:52.208Z,100.00
2023-02-23T00:09:53.647Z,100.00
2023-02-23T00:12:55.029Z,100.00
2023-02-23T00:15:56.447Z,100.00
2023-02-23T00:19:00.277Z,100.00
2023-02-23T00:22:01.759Z,100.00
2023-02-23T00:25:08.584Z,100.00
2023-02-23T00:28:10.066Z,100.00
2023-02-23T00:31:11.799Z,100.00
2023-02-23T00:34:15.377Z,100.00
2023-02-23T00:37:18.347Z,100.00
2023-02-23T00:40:23.740Z,100.00
2023-02-23T00:43:25.263Z,100.00
2023-02-23T00:46:29.854Z,100.00
2023-02-23T00:49:32.483Z,100.00
2023-02-23T00:52:33.927Z,100.00
2023-02-23T00:55:41.290Z,100.00
2023-02-23T00:58:42.964Z,100.00
2023-02-23T01:01:44.907Z,100.00
2023-02-23T01:04:46.349Z,100.00
2023-02-23T01:07:49.005Z,100.00
2023-02-23T01:10:53.987Z,100.00
2023-02-23T01:13:57.579Z,100.00
2023-02-23T01:16:59.984Z,100.00
2023-02-23T01:20:01.366Z,100.00
2023-02-23T01:23:04.014Z,100.00
2023-02-23T01:26:05.464Z,100.00
2023-02-23T01:29:13.141Z,100.00
2023-02-23T01:32:14.610Z,100.00
2023-02-23T01:35:16.049Z,100.00
2023-02-23T01:38:18.707Z,100.00
2023-02-23T01:41:26.825Z,100.00
2023-02-23T01:44:31.318Z,100.00
2023-02-23T01:47:32.826Z,100.00
2023-02-23T01:50:52.621Z,100.00
2023-02-23T01:54:01.072Z,100.00
2023-02-23T01:57:04.874Z,100.00
2023-02-23T02:00:13.013Z,100.00
2023-02-23T02:03:24.119Z,100.00
2023-02-23T02:06:29.952Z,100.00
2023-02-23T02:09:37.741Z,100.00
2023-02-23T02:12:40.766Z,100.00
2023-02-23T02:15:57.134Z,100.00
2023-02-23T02:19:10.178Z,100.00
2023-02-23T02:22:48.103Z,100.00
2023-02-23T02:25:58.591Z,100.00
2023-02-23T02:29:21.940Z,100.00
2023-02-23T02:32:55.999Z,100.00
2023-02-23T02:36:27.974Z,100.00
2023-02-23T02:40:17.078Z,100.00
2023-02-23T02:43:40.634Z,100.00
2023-02-23T02:46:51.931Z,100.00
2023-02-23T02:50:14.875Z,100.00
2023-02-23T02:53:34.524Z,100.00
2023-02-23T02:56:40.330Z,100.00
2023-02-23T03:00:06.227Z,100.00
2023-02-23T03:04:05.496Z,100.00
2023-02-23T03:07:49.997Z,100.00
2023-02-23T03:11:30.991Z,100.00
2023-02-23T03:15:29.941Z,100.00
2023-02-23T03:19:00.689Z,100.00
2023-02-23T03:22:28.809Z,100.00
2023-02-23T03:26:24.182Z,100.00
2023-02-23T03:30:07.368Z,100.00
2023-02-23T03:33:36.372Z,100.00
2023-02-23T03:37:02.139Z,100.00
2023-02-23T03:40:40.119Z,100.00
2023-02-23T03:44:15.558Z,100.00
2023-02-23T03:47:39.750Z,100.00
2023-02-23T03:51:05.831Z,100.00
2023-02-23T03:54:35.706Z,100.00
2023-02-23T03:57:58.027Z,100.00
2023-02-23T04:01:21.868Z,100.00
2023-02-23T04:04:44.167Z,100.00
2023-02-23T04:08:06.081Z,100.00
2023-02-23T04:11:34.961Z,100.00
2023-02-23T04:14:59.281Z,100.00
2023-02-23T04:18:00.830Z,100.00
2023-02-23T04:21:03.365Z,100.00
2023-02-23T04:24:04.924Z,100.00
2023-02-23T04:27:06.336Z,100.00
2023-02-23T04:30:11.368Z,100.00
2023-02-23T04:33:12.922Z,100.00
2023-02-23T04:36:14.325Z,100.00
2023-02-23T04:39:15.702Z,100.00
2023-02-23T04:42:18.082Z,100.00
2023-02-23T04:45:20.008Z,100.00
2023-02-23T04:48:21.406Z,100.00
2023-02-23T04:51:22.806Z,100.00
2023-02-23T04:54:24.201Z,100.00
2023-02-23T04:57:25.609Z,100.00
2023-02-23T05:00:29.260Z,100.00
2023-02-23T05:03:30.652Z,100.00
2023-02-23T05:06:32.625Z,100.00
2023-02-23T05:09:34.905Z,100.00
2023-02-23T05:12:36.322Z,100.00
2023-02-23T05:15:38.629Z,100.00
2023-02-23T05:18:40.146Z,100.00
2023-02-23T05:21:41.801Z,100.00
2023-02-23T05:24:43.171Z,100.00
2023-02-23T05:27:44.581Z,100.00
2023-02-23T05:30:46.017Z,100.00
2023-02-23T05:33:47.458Z,100.00
2023-02-23T05:36:48.853Z,100.00
2023-02-23T05:39:50.373Z,100.00
2023-02-23T05:42:51.789Z,100.00
2023-02-23T05:45:53.238Z,100.00
2023-02-23T05:49:00.051Z,100.00
2023-02-23T05:52:01.460Z,100.00
2023-02-23T05:55:02.837Z,100.00
2023-02-23T05:58:04.328Z,100.00
2023-02-23T06:01:05.711Z,100.00
2023-02-23T06:04:07.258Z,100.00
2023-02-23T06:07:08.703Z,100.00
2023-02-23T06:10:10.725Z,100.00
2023-02-23T06:13:12.615Z,100.00
2023-02-23T06:16:14.174Z,100.00
2023-02-23T06:19:15.823Z,100.00
2023-02-23T06:22:17.696Z,100.00
2023-02-23T06:25:19.094Z,100.00
2023-02-23T06:28:20.616Z,100.00
2023-02-23T06:31:22.232Z,100.00
2023-02-23T06:34:23.739Z,100.00
2023-02-23T06:37:25.245Z,100.00
2023-02-23T06:40:26.994Z,100.00
2023-02-23T06:43:29.531Z,100.00
2023-02-23T06:46:33.047Z,100.00
2023-02-23T06:49:34.527Z,100.00
2023-02-23T06:52:36.089Z,100.00
2023-02-23T06:55:37.541Z,100.00
2023-02-23T06:58:38.929Z,100.00
2023-02-23T07:01:40.391Z,100.00
2023-02-23T07:04:41.855Z,100.00
2023-02-23T07:07:43.486Z,100.00
2023-02-23T07:10:45.824Z,100.00
2023-02-23T07:13:47.308Z,100.00
2023-02-23T07:16:48.772Z,100.00
2023-02-23T07:19:50.170Z,100.00
2023-02-23T07:22:52.019Z,100.00
2023-02-23T07:25:56.505Z,100.00
2023-02-23T07:28:57.936Z,100.00
2023-02-23T07:31:59.872Z,100.00
2023-02-23T07:35:01.485Z,100.00
2023-02-23T07:38:04.302Z,100.00
2023-02-23T07:41:05.864Z,100.00
2023-02-23T07:44:07.676Z,100.00
2023-02-23T07:47:09.062Z,100.00
2023-02-23T07:50:12.585Z,100.00
2023-02-23T07:53:14.518Z,100.00
2023-02-23T07:56:16.010Z,100.00
2023-02-23T07:59:17.550Z,100.00
2023-02-23T08:02:18.969Z,100.00
2023-02-23T08:05:20.488Z,100.00
2023-02-23T08:08:22.245Z,100.00
2023-02-23T08:11:23.657Z,100.00
2023-02-23T08:14:25.266Z,100.00
2023-02-23T08:17:27.395Z,100.00
2023-02-23T08:20:28.792Z,100.00
2023-02-23T08:23:32.126Z,100.00
2023-02-23T08:26:35.835Z,100.00
2023-02-23T08:29:37.353Z,100.00
2023-02-23T08:32:38.814Z,100.00
2023-02-23T08:35:40.306Z,100.00
2023-02-23T08:38:41.690Z,100.00
2023-02-23T08:41:43.086Z,100.00
2023-02-23T08:44:44.755Z,100.00
2023-02-23T08:47:46.203Z,100.00
2023-02-23T08:50:49.787Z,100.00
2023-02-23T08:53:51.324Z,100.00
2023-02-23T08:56:56.084Z,100.00
2023-02-23T08:59:57.538Z,100.00
2023-02-23T09:02:58.925Z,100.00
2023-02-23T09:06:08.999Z,100.00
2023-02-23T09:09:10.566Z,100.00
2023-02-23T09:12:11.954Z,100.00
2023-02-23T09:15:13.485Z,100.00
2023-02-23T09:18:14.948Z,100.00
2023-02-23T09:21:20.935Z,100.00
2023-02-23T09:24:23.456Z,100.00
2023-02-23T09:27:24.853Z,100.00
2023-02-23T09:30:27.151Z,100.00
2023-02-23T09:33:28.619Z,100.00
2023-02-23T09:36:31.555Z,100.00
2023-02-23T09:39:38.683Z,100.00
2023-02-23T09:42:45.573Z,100.00
2023-02-23T09:45:58.373Z,100.00
2023-02-23T09:49:03.707Z,100.00
2023-02-23T09:52:10.711Z,100.00
2023-02-23T09:55:14.234Z,100.00
2023-02-23T09:58:23.614Z,100.00
2023-02-23T10:01:44.990Z,100.00
2023-02-23T10:04:50.279Z,100.00
2023-02-23T10:07:56.586Z,100.00
2023-02-23T10:11:14.581Z,100.00
2023-02-23T10:14:35.012Z,100.00
2023-02-23T10:17:52.466Z,100.00
2023-02-23T10:21:02.856Z,100.00
2023-02-23T10:24:16.196Z,100.00
2023-02-23T10:27:20.842Z,99.70
2023-02-23T10:30:27.241Z,99.46
2023-02-23T10:33:41.390Z,98.37
2023-02-23T10:36:59.011Z,97.15
2023-02-23T10:40:00.426Z,96.07
2023-02-23T10:43:02.518Z,97.80
2023-02-23T10:46:05.783Z,99.13
2023-02-23T10:49:16.214Z,95.87
2023-02-23T10:52:34.743Z,91.01
2023-02-23T10:55:36.249Z,89.22
2023-02-23T10:58:47.583Z,82.06
2023-02-23T11:02:01.495Z,79.19
2023-02-23T11:05:05.135Z,78.36
2023-02-23T11:08:29.118Z,78.12
2023-02-23T11:11:30.623Z,75.59
2023-02-23T11:14:32.100Z,73.59
2023-02-23T11:17:36.787Z,76.30
2023-02-23T11:20:41.635Z,75.16
2023-02-23T11:23:43.468Z,74.33
2023-02-23T11:26:47.597Z,75.21
2023-02-23T11:29:52.395Z,75.12
2023-02-23T11:32:57.516Z,70.53
2023-02-23T11:36:01.139Z,69.57
2023-02-23T11:39:23.498Z,67.75
2023-02-23T11:42:33.433Z,69.75
2023-02-23T11:45:51.136Z,71.26
2023-02-23T11:48:59.636Z,71.81
2023-02-23T11:52:02.034Z,68.65
2023-02-23T11:55:07.826Z,67.85
2023-02-23T11:58:47.343Z,69.35
2023-02-23T12:01:54.185Z,70.69
2023-02-23T12:05:07.286Z,71.14
2023-02-23T12:08:19.525Z,68.47
2023-02-23T12:11:28.109Z,67.56
2023-02-23T12:14:37.894Z,66.81
2023-02-23T12:17:46.915Z,68.69
2023-02-23T12:20:54.121Z,68.88
2023-02-23T12:24:06.028Z,70.33
2023-02-23T12:27:42.980Z,76.21
2023-02-23T12:30:59.479Z,78.33
2023-02-23T12:34:22.786Z,78.54
2023-02-23T12:37:30.151Z,76.87
2023-02-23T12:40:35.285Z,76.70
2023-02-23T12:43:49.220Z,74.20
2023-02-23T12:46:54.784Z,75.68
2023-02-23T12:50:13.256Z,76.81
2023-02-23T12:53:43.767Z,76.02
2023-02-23T12:56:57.959Z,74.08
2023-02-23T13:00:41.321Z,74.19
2023-02-23T13:04:19.983Z,71.70
2023-02-23T13:07:34.352Z,72.41
2023-02-23T13:10:44.955Z,72.55
2023-02-23T13:14:30.256Z,71.95
2023-02-23T13:17:40.347Z,72.58
2023-02-23T13:20:54.767Z,72.53
2023-02-23T13:23:59.118Z,73.39
2023-02-23T13:27:16.132Z,73.00
2023-02-23T13:30:20.556Z,74.01
2023-02-23T13:33:41.967Z,73.15
2023-02-23T13:36:45.866Z,73.49
2023-02-23T13:40:15.594Z,73.88
2023-02-23T13:43:32.439Z,72.98
2023-02-23T13:47:00.212Z,72.21
2023-02-23T13:50:54.188Z,70.22
2023-02-23T13:53:58.856Z,70.98
2023-02-23T13:57:05.496Z,71.76
2023-02-23T14:00:18.943Z,71.42
2023-02-23T14:03:24.405Z,71.55
2023-02-23T14:06:29.453Z,72.90
2023-02-23T14:09:35.693Z,73.45
2023-02-23T14:12:42.563Z,74.39
2023-02-23T14:15:53.547Z,73.49
2023-02-23T14:19:03.893Z,75.30
2023-02-23T14:22:10.417Z,75.95
2023-02-23T14:25:33.647Z,76.40
2023-02-23T14:28:38.996Z,75.75
2023-02-23T14:31:57.576Z,76.69
2023-02-23T14:35:01.753Z,76.53
2023-02-23T14:38:46.936Z,76.60
2023-02-23T14:41:53.912Z,77.63
2023-02-23T14:44:57.870Z,78.63
2023-02-23T14:48:05.181Z,79.96
2023-02-23T14:51:20.310Z,78.94
2023-02-23T14:54:30.920Z,79.26
2023-02-23T14:57:36.268Z,79.90
2023-02-23T15:00:42.683Z,81.65
2023-02-23T15:04:14.026Z,82.05
2023-02-23T15:07:25.168Z,83.01
2023-02-23T15:10:29.704Z,83.96
2023-02-23T15:13:39.804Z,85.50
2023-02-23T15:16:44.776Z,86.06
2023-02-23T15:19:48.436Z,85.75
2023-02-23T15:22:54.966Z,85.73
2023-02-23T15:25:56.857Z,84.37
2023-02-23T15:29:10.428Z,85.58
2023-02-23T15:32:18.631Z,86.96
2023-02-23T15:35:20.316Z,87.15
2023-02-23T15:38:42.935Z,85.44
2023-02-23T15:41:49.225Z,85.07
2023-02-23T15:44:57.160Z,85.26
2023-02-23T15:48:03.627Z,85.30
2023-02-23T15:51:06.922Z,86.89
2023-02-23T15:54:23.723Z,86.55
2023-02-23T15:57:34.696Z,87.92
2023-02-23T16:00:41.440Z,87.30
2023-02-23T16:03:54.547Z,87.58
2023-02-23T16:07:07.298Z,87.95
2023-02-23T16:10:20.819Z,88.84
2023-02-23T16:13:22.533Z,89.04
2023-02-23T16:16:25.466Z,89.53
2023-02-23T16:19:29.510Z,89.62
2023-02-23T16:22:32.067Z,89.85
2023-02-23T16:25:34.800Z,90.09
2023-02-23T16:28:42.000Z,90.26
2023-02-23T16:31:49.392Z,90.90
2023-02-23T16:34:57.851Z,91.82
2023-02-23T16:38:02.737Z,91.97
2023-02-23T16:41:05.192Z,92.38
2023-02-23T16:44:13.348Z,93.65
2023-02-23T16:47:23.982Z,93.94
2023-02-23T16:50:25.536Z,93.76
2023-02-23T16:53:27.025Z,93.56
2023-02-23T16:56:30.562Z,94.08
2023-02-23T16:59:32.476Z,95.07
2023-02-23T17:02:35.004Z,94.80
2023-02-23T17:05:36.408Z,97.94
2023-02-23T17:08:41.256Z,98.39
2023-02-23T17:11:47.001Z,98.58
2023-02-23T17:14:49.193Z,97.75
2023-02-23T17:17:53.195Z,96.00
2023-02-23T17:20:56.414Z,92.70
2023-02-23T17:24:02.655Z,93.72
2023-02-23T17:27:04.189Z,93.96
2023-02-23T17:30:06.910Z,94.09
2023-02-23T17:33:09.652Z,93.79
2023-02-23T17:36:14.640Z,92.32
2023-02-23T17:39:16.741Z,91.53
2023-02-23T17:42:18.723Z,92.33
2023-02-23T17:45:20.240Z,93.39
2023-02-23T17:48:22.806Z,92.64
2023-02-23T17:51:24.267Z,92.81
2023-02-23T17:54:27.585Z,92.95
2023-02-23T17:57:30.620Z,93.58
2023-02-23T18:00:37.686Z,94.20
2023-02-23T18:03:39.768Z,94.43
2023-02-23T18:06:45.335Z,94.11
2023-02-23T18:09:49.963Z,93.59
2023-02-23T18:12:53.558Z,93.09
2023-02-23T18:16:02.575Z,92.33
2023-02-23T18:19:04.030Z,93.06
2023-02-23T18:22:07.640Z,92.81
2023-02-23T18:25:19.286Z,94.22
2023-02-23T18:28:23.567Z,95.00
2023-02-23T18:31:30.387Z,95.46
2023-02-23T18:34:31.927Z,96.71
2023-02-23T18:37:33.397Z,96.09
2023-02-23T18:40:35.814Z,96.31
2023-02-23T18:43:38.993Z,96.31
2023-02-23T18:46:42.104Z,95.77
2023-02-23T18:49:43.814Z,96.02
2023-02-23T18:52:50.866Z,95.43
2023-02-23T18:55:52.380Z,95.09
2023-02-23T18:58:59.405Z,95.37
2023-02-23T19:02:00.977Z,96.19
2023-02-23T19:05:03.069Z,96.15
2023-02-23T19:08:08.960Z,96.24
2023-02-23T19:11:11.330Z,95.52
2023-02-23T19:14:18.084Z,96.29
2023-02-23T19:17:19.679Z,97.31
2023-02-23T19:20:23.035Z,97.60
2023-02-23T19:23:24.481Z,97.66
2023-02-23T19:26:27.048Z,98.02
2023-02-23T19:29:28.461Z,99.27
2023-02-23T19:32:30.068Z,100.00
2023-02-23T19:35:31.647Z,100.00
2023-02-23T19:38:34.085Z,100.00
2023-02-23T19:41:37.689Z,100.00
2023-02-23T19:44:39.197Z,100.00
2023-02-23T19:47:40.879Z,100.00
2023-02-23T19:50:47.964Z,100.00
2023-02-23T19:53:49.495Z,100.00
2023-02-23T19:56:51.372Z,100.00
2023-02-23T19:59:52.935Z,100.00
2023-02-23T20:02:56.910Z,100.00
2023-02-23T20:05:58.435Z,100.00
2023-02-23T20:09:01.657Z,100.00
2023-02-23T20:12:03.167Z,100.00
2023-02-23T20:15:05.458Z,100.00
2023-02-23T20:18:07.760Z,100.00
2023-02-23T20:21:13.390Z,100.00
2023-02-23T20:24:15.454Z,100.00
2023-02-23T20:27:17.020Z,100.00
2023-02-23T20:30:19.424Z,100.00
2023-02-23T20:33:20.866Z,100.00
2023-02-23T20:36:23.614Z,100.00
2023-02-23T20:39:26.736Z,100.00
2023-02-23T20:42:28.509Z,100.00
2023-02-23T20:45:29.895Z,100.00
2023-02-23T20:48:33.189Z,100.00
2023-02-23T20:51:34.593Z,100.00
2023-02-23T20:54:36.572Z,100.00
2023-02-23T20:57:38.083Z,100.00
2023-02-23T21:00:39.899Z,100.00
2023-02-23T21:03:41.529Z,100.00
2023-02-23T21:06:43.041Z,100.00
2023-02-23T21:09:45.208Z,100.00
2023-02-23T21:12:46.661Z,100.00
2023-02-23T21:15:58.445Z,100.00
2023-02-23T21:19:05.863Z,100.00
2023-02-23T21:22:07.542Z,100.00
2023-02-23T21:25:11.011Z,100.00
2023-02-23T21:28:12.440Z,100.00
2023-02-23T21:31:14.979Z,100.00
2023-02-23T21:34:19.365Z,100.00
2023-02-23T21:37:20.731Z,100.00
2023-02-23T21:40:23.536Z,100.00
2023-02-23T21:43:27.838Z,100.00
2023-02-23T21:46:29.366Z,100.00
2023-02-23T21:49:30.895Z,100.00
2023-02-23T21:52:32.981Z,100.00
2023-02-23T21:55:38.434Z,100.00
2023-02-23T21:58:47.349Z,100.00
2023-02-23T22:01:48.922Z,100.00
2023-02-23T22:04:50.619Z,100.00
2023-02-23T22:07:54.083Z,100.00
2023-02-23T22:10:55.501Z,100.00
2023-02-23T22:13:59.020Z,100.00
2023-02-23T22:17:00.647Z,100.00
2023-02-23T22:20:05.214Z,100.00
2023-02-23T22:23:06.598Z,100.00
2023-02-23T22:26:09.006Z,100.00
2023-02-23T22:29:10.638Z,100.00
2023-02-23T22:32:12.505Z,100.00
2023-02-23T22:35:14.023Z,100.00
2023-02-23T22:38:18.967Z,100.00
2023-02-23T22:41:20.747Z,100.00
2023-02-23T22:44:22.526Z,100.00
2023-02-23T22:47:24.250Z,100.00
2023-02-23T22:50:25.716Z,100.00
2023-02-23T22:53:28.061Z,100.00
2023-02-23T22:56:29.445Z,100.00
2023-02-23T22:59:30.878Z,100.00
2023-02-23T23:02:32.457Z,100.00
2023-02-23T23:05:33.926Z,100.00
2023-02-23T23:08:40.713Z,100.00
2023-02-23T23:11:42.606Z,100.00
2023-02-23T23:14:45.488Z,100.00
2023-02-23T23:17:49.476Z,100.00
2023-02-23T23:20:50.913Z,100.00
2023-02-23T23:23:55.773Z,100.00
2023-02-23T23:27:01.214Z,100.00
2023-02-23T23:30:05.669Z,100.00
2023-02-23T23:33:08.037Z,100.00
2023-02-23T23:36:10.056Z,100.00
2023-02-23T23:39:12.708Z,100.00
2023-02-23T23:42:14.139Z,100.00
2023-02-23T23:45:18.217Z,100.00
2023-02-23T23:48:21.630Z,100.00
2023-02-23T23:51:27.344Z,100.00
2023-02-23T23:54:30.887Z,100.00
2023-02-23T23:57:33.826Z,100.00
